Time;durP1;ratioP1;P1;durP2;ratioP2;P2;SDS_P1;SDS_P2;PMS_P1;PMS_P2;Temp;Humidity;BMP_temperature;BMP_pressure;BME280_temperature;BME280_humidity;BME280_pressure;Samples;Min_cycle;Max_cycle;Signal;HPM_P1;HPM_P2
2023/09/21 00:01:15;;;;;;;5.90;2.65;;;17.40;82.60;;;;;;5052431;28;20021;-54
2023/09/21 00:03:44;;;;;;;6.10;2.50;;;17.40;82.70;;;;;;5054879;28;20341;-54
2023/09/21 00:06:13;;;;;;;7.53;3.17;;;17.30;82.90;;;;;;5072246;28;20489;-56
2023/09/21 00:08:41;;;;;;;3.80;2.40;;;17.30;82.90;;;;;;5071961;28;20063;-53
2023/09/21 00:11:09;;;;;;;5.72;2.60;;;17.30;83.00;;;;;;5072352;28;20372;-55
2023/09/21 00:13:39;;;;;;;5.55;2.90;;;17.30;83.00;;;;;;5049902;28;20029;-50
2023/09/21 00:16:11;;;;;;;7.68;3.00;;;17.30;83.00;;;;;;5058820;28;20044;-51
2023/09/21 00:18:44;;;;;;;8.15;3.58;;;17.30;83.00;;;;;;5051040;28;20021;-55
2023/09/21 00:21:23;;;;;;;6.28;3.05;;;17.30;82.80;;;;;;5051417;28;20041;-52
2023/09/21 00:23:53;;;;;;;7.75;3.55;;;17.30;82.80;;;;;;5052477;28;20033;-55
2023/09/21 00:26:21;;;;;;;10.50;3.25;;;17.30;82.80;;;;;;5054165;28;20141;-55
2023/09/21 00:28:50;;;;;;;4.72;2.38;;;17.40;82.70;;;;;;5051316;28;20358;-53
2023/09/21 00:31:19;;;;;;;6.15;3.53;;;17.40;82.50;;;;;;5052627;28;20359;-52
2023/09/21 00:33:45;;;;;;;8.50;2.75;;;17.40;82.40;;;;;;5052476;28;20032;-51
2023/09/21 00:36:17;;;;;;;5.07;2.50;;;17.40;82.50;;;;;;5051158;28;20103;-52
2023/09/21 00:38:43;;;;;;;7.93;3.20;;;17.40;82.50;;;;;;5052118;28;20114;-54
2023/09/21 00:41:17;;;;;;;4.65;2.83;;;17.40;82.40;;;;;;5067860;28;20055;-49
2023/09/21 00:43:52;;;;;;;6.97;2.72;;;17.40;82.50;;;;;;5069078;28;20096;-53
2023/09/21 00:46:21;;;;;;;5.35;2.75;;;17.40;82.30;;;;;;5057867;28;20462;-56
2023/09/21 00:48:55;;;;;;;4.65;2.65;;;17.50;82.20;;;;;;5066310;28;20527;-54
2023/09/21 00:51:26;;;;;;;10.90;2.78;;;17.50;82.10;;;;;;5055769;28;20037;-52
2023/09/21 00:53:56;;;;;;;6.13;2.30;;;17.50;82.00;;;;;;5055589;28;20033;-54
2023/09/21 00:56:24;;;;;;;4.82;2.72;;;17.60;81.90;;;;;;5070017;28;20342;-54
2023/09/21 00:58:53;;;;;;;4.97;2.55;;;17.60;81.80;;;;;;5059546;28;20052;-56
2023/09/21 01:01:27;;;;;;;10.23;3.63;;;17.50;81.70;;;;;;5054143;28;20021;-53
2023/09/21 01:03:59;;;;;;;9.30;3.42;;;17.60;81.80;;;;;;5054271;28;20048;-48
2023/09/21 01:06:27;;;;;;;3.75;2.50;;;17.50;81.70;;;;;;5038227;28;20348;-52
2023/09/21 01:08:54;;;;;;;10.32;3.53;;;17.50;81.80;;;;;;5054437;28;20477;-50
2023/09/21 01:11:20;;;;;;;4.25;2.80;;;17.50;81.80;;;;;;5057407;28;20123;-55
2023/09/21 01:13:47;;;;;;;4.68;2.75;;;17.50;81.90;;;;;;5074103;28;20442;-54
2023/09/21 01:16:17;;;;;;;5.82;3.00;;;17.40;82.00;;;;;;5065161;28;20045;-51
2023/09/21 01:18:44;;;;;;;5.90;2.95;;;17.40;82.00;;;;;;5057596;28;20033;-53
2023/09/21 01:21:13;;;;;;;5.03;2.47;;;17.40;82.00;;;;;;5075068;28;20025;-55
2023/09/21 01:23:58;;;;;;;4.80;2.45;;;17.40;82.10;;;;;;5052145;28;20493;-51
2023/09/21 01:26:27;;;;;;;6.60;2.33;;;17.40;82.10;;;;;;5069686;28;20036;-55
2023/09/21 01:28:56;;;;;;;5.07;3.17;;;17.40;82.10;;;;;;5074345;28;20029;-53
2023/09/21 01:31:24;;;;;;;4.70;2.60;;;17.30;82.20;;;;;;5074576;28;20036;-52
2023/09/21 01:33:51;;;;;;;5.78;2.50;;;17.40;82.20;;;;;;5060348;28;20056;-54
2023/09/21 01:36:23;;;;;;;7.00;2.67;;;17.30;82.20;;;;;;5058257;28;20049;-53
2023/09/21 01:38:50;;;;;;;5.90;2.75;;;17.40;82.10;;;;;;5029741;28;20025;-52
2023/09/21 01:41:18;;;;;;;5.40;2.97;;;17.40;82.00;;;;;;5021824;28;20498;-50
2023/09/21 01:43:48;;;;;;;5.82;2.78;;;17.40;81.90;;;;;;5021672;28;20033;-51
2023/09/21 01:46:21;;;;;;;3.97;2.42;;;17.40;81.80;;;;;;5014748;28;20025;-53
2023/09/21 01:48:47;;;;;;;4.40;2.70;;;17.40;81.80;;;;;;5026134;28;20053;-50
2023/09/21 01:51:20;;;;;;;4.00;2.60;;;17.40;81.80;;;;;;5014789;28;20030;-54
2023/09/21 01:53:48;;;;;;;5.47;2.72;;;17.40;81.90;;;;;;5014613;28;20030;-55
2023/09/21 01:56:15;;;;;;;4.70;2.60;;;17.30;81.80;;;;;;5023855;28;20029;-51
2023/09/21 01:58:42;;;;;;;7.30;3.08;;;17.40;81.80;;;;;;5033868;28;20025;-53
2023/09/21 02:01:10;;;;;;;5.32;2.30;;;17.30;81.80;;;;;;5049640;28;20025;-51
2023/09/21 02:03:39;;;;;;;4.75;2.95;;;17.30;81.90;;;;;;5034407;28;20022;-51
2023/09/21 02:06:05;;;;;;;5.25;2.28;;;17.30;82.00;;;;;;5021584;28;20037;-54
2023/09/21 02:08:33;;;;;;;4.65;2.13;;;17.20;82.00;;;;;;5023161;28;20033;-52
2023/09/21 02:10:59;;;;;;;8.15;2.28;;;17.30;82.10;;;;;;5015402;28;20045;-54
2023/09/21 02:13:25;;;;;;;5.30;2.78;;;17.20;82.20;;;;;;5013187;28;20036;-53
2023/09/21 02:15:52;;;;;;;5.32;2.45;;;17.20;82.40;;;;;;5014733;28;20353;-54
2023/09/21 02:18:19;;;;;;;5.57;2.78;;;17.10;82.50;;;;;;5015253;28;20034;-55
2023/09/21 02:20:46;;;;;;;4.13;2.63;;;17.10;82.80;;;;;;5013845;28;20096;-54
2023/09/21 02:23:15;;;;;;;4.95;2.75;;;17.10;82.90;;;;;;5028885;28;20371;-55
2023/09/21 02:25:43;;;;;;;3.70;2.30;;;17.10;82.90;;;;;;5014859;28;20026;-55
2023/09/21 02:28:12;;;;;;;5.32;2.33;;;17.10;82.90;;;;;;5027872;28;20291;-54
2023/09/21 02:30:47;;;;;;;5.35;2.83;;;17.00;82.90;;;;;;5027372;28;20440;-51
2023/09/21 02:33:38;;;;;;;4.85;2.40;;;17.00;83.00;;;;;;5026123;28;20095;-53
2023/09/21 02:36:14;;;;;;;4.75;2.45;;;17.00;82.90;;;;;;5023927;28;20442;-49
2023/09/21 02:38:43;;;;;;;3.92;2.30;;;17.00;82.90;;;;;;5072348;28;20460;-55
2023/09/21 02:41:18;;;;;;;5.30;2.63;;;17.00;82.90;;;;;;5056805;28;20059;-53
2023/09/21 02:43:49;;;;;;;4.85;2.45;;;17.00;82.80;;;;;;5072515;28;20081;-52
2023/09/21 02:46:17;;;;;;;8.00;2.78;;;17.00;82.70;;;;;;5068888;28;20029;-52
2023/09/21 02:48:44;;;;;;;4.30;2.28;;;17.10;82.60;;;;;;5055586;28;20473;-52
2023/09/21 02:51:11;;;;;;;4.50;2.83;;;17.10;82.60;;;;;;5072845;28;20032;-55
2023/09/21 02:53:38;;;;;;;5.55;2.47;;;17.00;82.60;;;;;;5057467;28;20036;-53
2023/09/21 02:56:07;;;;;;;4.95;2.65;;;17.10;82.60;;;;;;5051142;28;20069;-51
2023/09/21 02:58:36;;;;;;;5.53;2.33;;;17.00;82.80;;;;;;5070919;28;20047;-53
2023/09/21 03:01:02;;;;;;;5.15;2.92;;;17.00;83.00;;;;;;5053201;28;20428;-54
2023/09/21 03:03:30;;;;;;;7.55;2.70;;;16.90;83.00;;;;;;5053257;28;20045;-54
2023/09/21 03:06:00;;;;;;;4.32;2.55;;;16.90;83.10;;;;;;5052360;28;20079;-53
2023/09/21 03:08:27;;;;;;;7.00;2.78;;;16.90;83.20;;;;;;5058541;28;20040;-53
2023/09/21 03:10:55;;;;;;;3.72;2.45;;;16.90;83.20;;;;;;5052738;28;20033;-51
2023/09/21 03:13:23;;;;;;;5.13;2.60;;;16.90;83.30;;;;;;5069268;28;20363;-53
2023/09/21 03:16:12;;;;;;;6.10;2.63;;;16.90;83.30;;;;;;5054630;28;20051;-51
2023/09/21 03:18:41;;;;;;;4.82;2.70;;;16.90;83.20;;;;;;5067115;28;20354;-51
2023/09/21 03:21:15;;;;;;;4.50;2.25;;;16.80;83.30;;;;;;5070726;28;20032;-48
2023/09/21 03:23:44;;;;;;;5.57;2.50;;;16.90;83.30;;;;;;5072996;28;20059;-50
2023/09/21 03:26:15;;;;;;;6.18;3.20;;;16.80;83.30;;;;;;5069088;28;20082;-51
2023/09/21 03:28:41;;;;;;;6.75;3.00;;;16.80;83.20;;;;;;5072672;28;20400;-55
2023/09/21 03:31:07;;;;;;;6.00;2.40;;;16.90;83.00;;;;;;5072453;28;20024;-49
2023/09/21 03:33:34;;;;;;;4.60;2.58;;;16.80;83.00;;;;;;5064744;28;20041;-50
2023/09/21 03:36:03;;;;;;;3.95;2.03;;;16.80;83.10;;;;;;5052097;28;20359;-51
2023/09/21 03:38:31;;;;;;;4.53;2.50;;;16.90;83.10;;;;;;5064472;28;20480;-53
2023/09/21 03:41:00;;;;;;;4.55;2.40;;;16.80;83.10;;;;;;5072149;28;20037;-51
2023/09/21 03:43:28;;;;;;;4.40;2.37;;;16.80;83.20;;;;;;5072094;28;20039;-49
2023/09/21 03:45:55;;;;;;;5.93;3.05;;;16.80;83.30;;;;;;5050695;28;20029;-53
2023/09/21 03:48:22;;;;;;;6.13;2.90;;;16.80;83.40;;;;;;5052222;28;20037;-51
2023/09/21 03:50:52;;;;;;;5.43;2.75;;;16.80;83.30;;;;;;5062114;28;20039;-52
2023/09/21 03:53:17;;;;;;;3.50;2.53;;;16.80;83.30;;;;;;5052346;28;20034;-51
2023/09/21 03:55:46;;;;;;;3.70;2.30;;;16.70;83.40;;;;;;5052791;28;20024;-55
2023/09/21 03:58:15;;;;;;;5.93;2.28;;;16.80;83.40;;;;;;5066864;28;20063;-50
2023/09/21 04:00:51;;;;;;;3.95;2.03;;;16.70;83.40;;;;;;5069964;28;20028;-52
2023/09/21 04:03:17;;;;;;;4.57;2.95;;;16.70;83.50;;;;;;5072505;28;20032;-52
2023/09/21 04:05:46;;;;;;;4.82;2.88;;;16.70;83.50;;;;;;5072282;28;20564;-51
2023/09/21 04:08:14;;;;;;;4.88;2.30;;;16.70;83.40;;;;;;5072736;28;20097;-49
2023/09/21 04:10:42;;;;;;;6.80;2.63;;;16.70;83.60;;;;;;5064220;28;20033;-52
2023/09/21 04:13:10;;;;;;;4.03;2.47;;;16.60;83.60;;;;;;5072044;28;20029;-53
2023/09/21 04:15:37;;;;;;;4.53;2.90;;;16.70;83.50;;;;;;5072253;28;20395;-54
2023/09/21 04:18:07;;;;;;;5.05;2.40;;;16.60;83.50;;;;;;5061126;28;20374;-53
2023/09/21 04:20:39;;;;;;;4.38;2.60;;;16.60;83.50;;;;;;5055690;28;20032;-48
2023/09/21 04:23:07;;;;;;;5.53;2.78;;;16.60;83.70;;;;;;5059071;28;20037;-53
2023/09/21 04:25:36;;;;;;;5.13;2.97;;;16.60;83.60;;;;;;5075724;28;20046;-51
2023/09/21 04:28:05;;;;;;;6.45;2.95;;;16.60;83.60;;;;;;5075662;28;20044;-54
2023/09/21 04:30:34;;;;;;;6.70;3.35;;;16.60;83.30;;;;;;5069348;28;20072;-53
2023/09/21 04:33:04;;;;;;;4.00;2.47;;;16.60;83.30;;;;;;5056743;28;20059;-54
2023/09/21 04:35:32;;;;;;;4.35;2.83;;;16.70;83.10;;;;;;5073799;28;20063;-53
2023/09/21 04:37:59;;;;;;;6.60;3.33;;;16.70;83.10;;;;;;5064823;28;20071;-53
2023/09/21 04:40:30;;;;;;;5.15;2.65;;;16.70;83.10;;;;;;5055766;28;20025;-53
2023/09/21 04:42:58;;;;;;;4.65;2.67;;;16.70;83.00;;;;;;5072444;28;20112;-52
2023/09/21 04:45:26;;;;;;;4.10;2.53;;;16.70;82.90;;;;;;5075586;28;20493;-51
2023/09/21 04:48:01;;;;;;;4.88;2.80;;;16.70;82.90;;;;;;5059749;28;20033;-52
2023/09/21 04:50:29;;;;;;;5.07;2.67;;;16.70;82.90;;;;;;5055634;28;20365;-51
2023/09/21 04:52:56;;;;;;;4.30;2.55;;;16.70;82.80;;;;;;5068462;28;20350;-53
2023/09/21 04:55:25;;;;;;;6.45;2.67;;;16.70;82.80;;;;;;5075371;28;20043;-51
2023/09/21 04:57:56;;;;;;;5.20;2.50;;;16.70;82.60;;;;;;5075253;28;20047;-53
2023/09/21 05:00:22;;;;;;;4.32;2.38;;;16.70;82.50;;;;;;5063306;28;20025;-53
2023/09/21 05:02:50;;;;;;;5.00;2.60;;;16.80;82.50;;;;;;5064614;28;20462;-53
2023/09/21 05:05:17;;;;;;;4.90;2.50;;;16.80;82.30;;;;;;5067914;28;20048;-54
2023/09/21 05:07:45;;;;;;;4.18;2.40;;;16.80;82.10;;;;;;5055237;28;20319;-49
2023/09/21 05:10:13;;;;;;;5.38;2.42;;;16.90;81.90;;;;;;5055142;28;20086;-54
2023/09/21 05:12:40;;;;;;;5.45;2.10;;;16.90;81.70;;;;;;5058342;28;20091;-49
2023/09/21 05:15:11;;;;;;;6.40;2.28;;;16.90;81.60;;;;;;5055012;28;20082;-50
2023/09/21 05:17:41;;;;;;;5.22;3.15;;;16.90;81.50;;;;;;5054842;28;20082;-54
2023/09/21 05:20:09;;;;;;;6.60;2.15;;;16.90;81.30;;;;;;5059342;28;20059;-50
2023/09/21 05:22:40;;;;;;;5.20;2.20;;;17.00;81.10;;;;;;5074777;28;20024;-54
2023/09/21 05:25:06;;;;;;;4.05;2.30;;;17.00;80.90;;;;;;5067739;28;20347;-50
2023/09/21 05:27:33;;;;;;;5.88;2.50;;;17.00;80.80;;;;;;5063155;28;20445;-50
2023/09/21 05:30:01;;;;;;;3.47;2.30;;;17.10;80.60;;;;;;5051714;28;20115;-54
2023/09/21 05:32:32;;;;;;;6.00;2.63;;;17.10;80.50;;;;;;5054160;28;20039;-51
2023/09/21 05:35:05;;;;;;;4.10;2.58;;;17.10;80.40;;;;;;5053718;28;20037;-49
2023/09/21 05:37:34;;;;;;;6.93;3.42;;;17.10;80.30;;;;;;5039561;28;20046;-54
2023/09/21 05:40:06;;;;;;;4.97;2.20;;;17.20;80.10;;;;;;5033912;28;20044;-51
2023/09/21 05:42:37;;;;;;;3.88;1.95;;;17.20;80.00;;;;;;5034678;28;20026;-51
2023/09/21 05:45:03;;;;;;;3.95;1.95;;;17.20;80.00;;;;;;5034778;28;20170;-49
2023/09/21 05:47:30;;;;;;;4.30;2.33;;;17.20;80.00;;;;;;5027133;28;20486;-50
2023/09/21 05:49:57;;;;;;;4.55;2.25;;;17.20;79.90;;;;;;5014855;28;20034;-54
2023/09/21 05:52:25;;;;;;;7.47;2.72;;;17.20;80.00;;;;;;5016727;28;20053;-53
2023/09/21 05:54:55;;;;;;;4.53;2.10;;;17.20;79.80;;;;;;5023769;28;20111;-53
2023/09/21 05:57:22;;;;;;;3.60;2.20;;;17.20;79.80;;;;;;5033494;28;20049;-50
2023/09/21 05:59:50;;;;;;;7.72;2.95;;;17.30;79.80;;;;;;5034616;28;20021;-51
2023/09/21 06:02:20;;;;;;;4.68;2.30;;;17.20;79.80;;;;;;5034449;28;20025;-54
2023/09/21 06:04:48;;;;;;;;;;;17.30;79.60;;;;;;5032491;28;20041;-54
2023/09/21 06:07:15;;;;;;;4.00;2.00;;;17.40;79.60;;;;;;5030202;28;20504;-51
2023/09/21 06:09:48;;;;;;;21.63;3.10;;;17.30;79.50;;;;;;5014405;28;20487;-49
2023/09/21 06:12:27;;;;;;;5.63;2.25;;;17.40;79.50;;;;;;5029691;28;20072;-53
2023/09/21 06:14:57;;;;;;;7.70;3.08;;;17.40;79.40;;;;;;5030729;28;20033;-49
2023/09/21 06:17:26;;;;;;;5.68;2.63;;;17.40;79.10;;;;;;5034127;28;20033;-54
2023/09/21 06:19:53;;;;;;;4.88;2.28;;;17.50;79.00;;;;;;5028660;28;20764;-52
2023/09/21 06:22:20;;;;;;;4.38;2.22;;;17.50;78.80;;;;;;5012992;28;20038;-53
2023/09/21 06:24:52;;;;;;;6.85;2.47;;;17.60;78.70;;;;;;5025402;28;20033;-52
2023/09/21 06:27:19;;;;;;;4.70;2.50;;;17.70;78.60;;;;;;5019374;28;20030;-53
2023/09/21 06:29:45;;;;;;;3.92;2.05;;;17.70;78.50;;;;;;5048281;28;20041;-52
2023/09/21 06:32:12;;;;;;;7.25;2.75;;;17.70;78.40;;;;;;5032721;28;20163;-54
2023/09/21 06:34:42;;;;;;;4.70;2.40;;;17.80;78.30;;;;;;5029949;28;20053;-53
2023/09/21 06:37:12;;;;;;;7.13;2.50;;;17.80;78.20;;;;;;5037009;28;20048;-54
2023/09/21 06:39:39;;;;;;;5.10;3.07;;;17.90;77.90;;;;;;5053467;28;20079;-51
2023/09/21 06:42:08;;;;;;;6.63;1.88;;;17.90;77.70;;;;;;5052664;28;20047;-50
2023/09/21 06:44:37;;;;;;;6.15;2.22;;;18.00;77.70;;;;;;5068078;28;20028;-51
2023/09/21 06:47:07;;;;;;;4.10;2.28;;;18.10;77.50;;;;;;5073143;28;20465;-51
2023/09/21 06:49:35;;;;;;;3.88;2.10;;;18.20;77.30;;;;;;5072836;28;20119;-49
2023/09/21 06:52:06;;;;;;;3.35;2.08;;;18.30;77.10;;;;;;5071830;28;20123;-52
2023/09/21 06:54:32;;;;;;;7.05;3.15;;;18.30;77.10;;;;;;5054973;28;20747;-51
2023/09/21 06:57:03;;;;;;;6.35;2.10;;;18.40;76.70;;;;;;5064223;28;20041;-55
2023/09/21 06:59:54;;;;;;;6.28;2.58;;;18.40;76.70;;;;;;5072740;28;20055;-50
2023/09/21 07:02:22;;;;;;;4.85;1.80;;;18.50;76.40;;;;;;5053668;28;20043;-53
2023/09/21 07:04:49;;;;;;;4.47;2.58;;;18.50;76.40;;;;;;5053259;28;20017;-52
2023/09/21 07:07:16;;;;;;;4.68;1.83;;;18.50;76.20;;;;;;5053008;28;20028;-51
2023/09/21 07:09:45;;;;;;;3.60;1.92;;;18.60;76.20;;;;;;5062757;28;20054;-51
2023/09/21 07:12:13;;;;;;;3.50;2.00;;;18.60;76.20;;;;;;5052621;28;20079;-50
2023/09/21 07:14:44;;;;;;;3.58;1.83;;;18.70;75.90;;;;;;5064643;28;20472;-51
2023/09/21 07:17:11;;;;;;;3.95;2.40;;;18.80;76.10;;;;;;5055317;28;20529;-52
2023/09/21 07:19:40;;;;;;;4.57;2.28;;;18.80;76.00;;;;;;5059518;28;20033;-52
2023/09/21 07:22:07;;;;;;;5.00;1.95;;;18.90;75.70;;;;;;5052674;28;20040;-52
2023/09/21 07:24:37;;;;;;;3.80;1.90;;;18.90;75.90;;;;;;5057856;28;20051;-52
2023/09/21 07:27:06;;;;;;;5.18;2.67;;;19.10;75.60;;;;;;5052450;28;20458;-56
2023/09/21 07:29:33;;;;;;;3.25;1.65;;;19.30;75.00;;;;;;5058479;28;20438;-53
2023/09/21 07:32:04;;;;;;;3.63;2.00;;;19.40;74.60;;;;;;5066362;28;20029;-52
2023/09/21 07:34:38;;;;;;;3.05;2.05;;;19.70;73.70;;;;;;5052539;28;20029;-48
2023/09/21 07:37:10;;;;;;;6.57;2.63;;;19.90;73.10;;;;;;5052044;28;20055;-51
2023/09/21 07:39:37;;;;;;;4.22;2.20;;;20.10;72.90;;;;;;5055882;28;20420;-54
2023/09/21 07:42:06;;;;;;;3.30;2.00;;;20.40;71.90;;;;;;5056579;28;20033;-53
2023/09/21 07:44:33;;;;;;;3.10;1.58;;;20.70;71.10;;;;;;5059696;28;20068;-53
2023/09/21 07:47:00;;;;;;;5.22;2.20;;;20.90;69.80;;;;;;5065315;28;20048;-55
2023/09/21 07:49:29;;;;;;;6.47;2.28;;;21.20;69.30;;;;;;5050235;28;20033;-52
2023/09/21 07:51:57;;;;;;;;;;;21.20;69.20;;;;;;5059178;28;20025;-54
2023/09/21 07:54:25;;;;;;;4.03;1.85;;;21.10;69.40;;;;;;5073205;28;19920;-53
2023/09/21 07:56:54;;;;;;;3.83;2.15;;;20.90;69.80;;;;;;5056959;28;20033;-49
2023/09/21 07:59:20;;;;;;;3.60;2.03;;;20.80;70.60;;;;;;5058330;28;20032;-51
2023/09/21 08:01:48;;;;;;;2.90;1.60;;;20.60;70.80;;;;;;5075084;28;20033;-50
2023/09/21 08:04:21;;;;;;;5.30;2.65;;;20.60;70.30;;;;;;5075871;28;20369;-54
2023/09/21 08:06:52;;;;;;;3.20;1.83;;;20.50;70.50;;;;;;5061407;28;20037;-53
2023/09/21 08:09:24;;;;;;;4.15;2.42;;;20.60;70.20;;;;;;5059395;28;20043;-54
2023/09/21 08:11:53;;;;;;;4.00;2.47;;;20.80;70.60;;;;;;5075972;28;20024;-54
2023/09/21 08:14:23;;;;;;;5.07;2.00;;;21.00;69.60;;;;;;5070558;28;20041;-54
2023/09/21 08:16:52;;;;;;;4.63;2.17;;;21.40;69.30;;;;;;5073489;28;20025;-54
2023/09/21 08:19:19;;;;;;;3.60;2.10;;;21.50;68.40;;;;;;5059042;28;20039;-50
2023/09/21 08:21:47;;;;;;;5.57;2.20;;;21.50;68.10;;;;;;5066997;28;20029;-55
2023/09/21 08:24:13;;;;;;;5.75;1.95;;;21.30;68.50;;;;;;5075720;28;20028;-50
2023/09/21 08:26:41;;;;;;;4.88;2.17;;;21.20;68.80;;;;;;5056290;28;20032;-51
2023/09/21 08:29:11;;;;;;;8.90;3.72;;;21.20;68.60;;;;;;5054910;28;20366;-51
2023/09/21 08:31:41;;;;;;;3.60;2.13;;;21.10;68.90;;;;;;5062315;28;20025;-50
2023/09/21 08:34:11;;;;;;;3.97;2.17;;;21.10;69.50;;;;;;5056064;28;20028;-48
2023/09/21 08:36:40;;;;;;;6.55;2.22;;;21.10;69.20;;;;;;5055457;28;20128;-54
2023/09/21 08:39:07;;;;;;;;;;;21.10;69.90;;;;;;5057141;28;20053;-53
2023/09/21 08:41:36;;;;;;;4.25;1.90;;;21.00;69.40;;;;;;5073395;28;19966;-52
2023/09/21 08:44:04;;;;;;;3.88;1.73;;;21.10;69.60;;;;;;5075561;28;20074;-53
2023/09/21 08:46:33;;;;;;;3.90;1.90;;;21.10;69.40;;;;;;5058139;28;20033;-55
2023/09/21 08:49:03;;;;;;;3.92;1.80;;;21.10;69.30;;;;;;5026662;28;20512;-51
2023/09/21 08:51:37;;;;;;;3.40;1.77;;;21.20;69.50;;;;;;5055722;28;20037;-54
2023/09/21 08:54:07;;;;;;;5.93;2.58;;;21.20;69.10;;;;;;5074733;28;20037;-52
2023/09/21 08:56:36;;;;;;;3.67;1.85;;;21.10;69.20;;;;;;5045190;28;20110;-52
2023/09/21 08:59:06;;;;;;;4.78;2.28;;;21.00;70.10;;;;;;5065843;28;20028;-51
2023/09/21 09:01:34;;;;;;;5.68;2.63;;;21.00;69.40;;;;;;5074549;28;20041;-51
2023/09/21 09:04:03;;;;;;;5.88;1.95;;;21.00;70.00;;;;;;5073714;28;20032;-53
2023/09/21 09:06:29;;;;;;;;;;;20.90;70.20;;;;;;5057449;28;20036;-51
2023/09/21 09:09:00;;;;;;;6.50;2.38;;;21.00;70.00;;;;;;5074180;28;19916;-50
2023/09/21 09:11:42;;;;;;;6.18;2.28;;;21.00;70.20;;;;;;5054491;28;20484;-51
2023/09/21 09:14:19;;;;;;;5.82;2.50;;;21.00;70.30;;;;;;5056645;28;20489;-52
2023/09/21 09:16:47;;;;;;;3.70;1.83;;;21.00;70.80;;;;;;5066475;28;20202;-53
2023/09/21 09:19:16;;;;;;;4.30;2.15;;;20.90;70.80;;;;;;5055099;28;20080;-48
2023/09/21 09:21:50;;;;;;;4.78;2.30;;;20.90;71.30;;;;;;5053750;28;20029;-54
2023/09/21 09:24:16;;;;;;;5.20;2.53;;;20.90;71.70;;;;;;5055003;28;20041;-51
2023/09/21 09:26:42;;;;;;;4.68;2.53;;;20.90;71.10;;;;;;5072793;28;20032;-48
2023/09/21 09:29:12;;;;;;;3.88;2.20;;;20.90;70.90;;;;;;5060372;28;20029;-54
2023/09/21 09:31:41;;;;;;;3.75;2.00;;;21.10;70.80;;;;;;5057430;28;20051;-52
2023/09/21 09:34:12;;;;;;;5.25;2.13;;;21.40;70.20;;;;;;5057000;28;20033;-53
2023/09/21 09:36:41;;;;;;;5.55;2.42;;;21.50;70.60;;;;;;5061804;28;20045;-52
2023/09/21 09:39:14;;;;;;;4.30;2.30;;;21.60;69.60;;;;;;5065090;28;20080;-53
2023/09/21 09:41:42;;;;;;;5.55;2.17;;;21.60;69.40;;;;;;5074513;28;20296;-53
2023/09/21 09:44:15;;;;;;;10.43;2.40;;;21.50;69.70;;;;;;5072834;28;20066;-48
2023/09/21 09:46:43;;;;;;;7.13;2.30;;;21.60;70.30;;;;;;5072722;28;20036;-50
2023/09/21 09:49:10;;;;;;;7.50;2.42;;;21.60;70.50;;;;;;5072546;28;20021;-54
2023/09/21 09:51:45;;;;;;;5.10;2.00;;;21.70;69.50;;;;;;5054511;28;20026;-52
2023/09/21 09:54:14;;;;;;;5.18;2.58;;;21.90;69.60;;;;;;5054567;28;20033;-55
2023/09/21 09:56:51;;;;;;;3.97;2.03;;;22.20;69.20;;;;;;5071718;28;20386;-53
2023/09/21 09:59:21;;;;;;;3.72;2.10;;;22.40;68.60;;;;;;5054196;28;20045;-52
2023/09/21 10:01:49;;;;;;;4.18;1.88;;;22.50;67.40;;;;;;5073400;28;20519;-51
2023/09/21 10:04:20;;;;;;;4.95;2.42;;;22.60;67.40;;;;;;5074311;28;20047;-50
2023/09/21 10:06:58;;;;;;;4.57;2.05;;;22.80;68.50;;;;;;5063123;28;20033;-53
2023/09/21 10:09:27;;;;;;;4.68;2.45;;;22.90;66.30;;;;;;5054776;28;20372;-49
2023/09/21 10:12:00;;;;;;;6.32;2.33;;;23.10;67.80;;;;;;5054280;28;20338;-54
2023/09/21 10:14:31;;;;;;;4.38;2.00;;;23.20;65.10;;;;;;5053525;28;20036;-54
2023/09/21 10:16:59;;;;;;;5.30;2.38;;;23.20;66.40;;;;;;5053526;28;20033;-51
2023/09/21 10:19:38;;;;;;;5.40;2.30;;;23.30;66.00;;;;;;5053940;28;20020;-53
2023/09/21 10:22:26;;;;;;;4.43;2.25;;;23.40;66.00;;;;;;5062471;28;20067;-54
2023/09/21 10:24:58;;;;;;;3.60;2.10;;;23.40;65.20;;;;;;5073861;28;20414;-54
2023/09/21 10:27:28;;;;;;;3.55;1.92;;;23.30;65.80;;;;;;5051973;28;20036;-50
2023/09/21 10:30:06;;;;;;;5.90;1.90;;;23.20;66.20;;;;;;5053598;28;20104;-52
2023/09/21 10:32:50;;;;;;;4.32;2.00;;;23.00;65.80;;;;;;5058219;28;20477;-54
2023/09/21 10:35:42;;;;;;;4.57;2.08;;;22.80;66.10;;;;;;5073525;28;20029;-53
2023/09/21 10:38:19;;;;;;;4.63;2.08;;;22.60;66.60;;;;;;5041589;28;20040;-50
2023/09/21 10:40:48;;;;;;;4.10;2.00;;;22.40;68.20;;;;;;5054875;28;20036;-50
2023/09/21 10:43:41;;;;;;;3.75;2.28;;;22.50;68.00;;;;;;5055604;28;20025;-52
2023/09/21 10:46:21;;;;;;;4.00;2.15;;;22.40;68.80;;;;;;5055789;28;20036;-50
2023/09/21 10:49:16;;;;;;;3.35;1.77;;;22.30;68.20;;;;;;5056008;28;20047;-54
2023/09/21 10:51:46;;;;;;;6.15;2.50;;;22.20;69.00;;;;;;5053756;28;20033;-50
2023/09/21 10:54:20;;;;;;;4.15;1.98;;;22.20;68.40;;;;;;5052194;28;20029;-49
2023/09/21 10:56:47;;;;;;;5.72;2.35;;;22.20;68.30;;;;;;5063240;28;20032;-53
2023/09/21 10:59:13;;;;;;;6.53;2.40;;;22.30;67.90;;;;;;5072765;28;20099;-50
2023/09/21 11:01:41;;;;;;;5.63;2.55;;;22.20;67.90;;;;;;5061759;28;20036;-49
2023/09/21 11:04:11;;;;;;;6.45;2.20;;;22.20;68.60;;;;;;5072687;28;20028;-53
2023/09/21 11:06:37;;;;;;;3.35;2.33;;;22.20;69.30;;;;;;5065029;28;20037;-53
2023/09/21 11:09:07;;;;;;;7.05;2.10;;;22.30;70.50;;;;;;5064800;28;20032;-53
2023/09/21 11:11:34;;;;;;;4.47;2.20;;;22.30;70.90;;;;;;5072830;28;20032;-52
2023/09/21 11:14:03;;;;;;;4.22;2.33;;;22.20;71.60;;;;;;5070910;28;20644;-51
2023/09/21 11:16:31;;;;;;;7.22;2.50;;;22.20;71.30;;;;;;5073302;28;20353;-51
2023/09/21 11:18:58;;;;;;;3.33;2.15;;;22.00;70.60;;;;;;5072579;28;20458;-50
2023/09/21 11:21:36;;;;;;;4.07;2.00;;;21.90;71.20;;;;;;5072906;28;20119;-52
2023/09/21 11:24:08;;;;;;;3.83;1.98;;;21.80;72.50;;;;;;5073211;28;20086;-53
2023/09/21 11:26:45;;;;;;;3.88;2.58;;;21.60;73.90;;;;;;5092546;28;20051;-54
2023/09/21 11:29:14;;;;;;;3.63;2.15;;;21.40;74.60;;;;;;5091893;28;20074;-49
2023/09/21 11:31:44;;;;;;;4.40;2.17;;;21.20;75.60;;;;;;5090342;28;20364;-51
2023/09/21 11:34:12;;;;;;;9.07;2.58;;;21.10;76.10;;;;;;5075583;28;20056;-50
2023/09/21 11:36:39;;;;;;;4.60;2.85;;;20.90;76.50;;;;;;5092423;28;20080;-53
2023/09/21 11:39:11;;;;;;;4.93;2.45;;;20.80;76.90;;;;;;5092255;28;20621;-51
2023/09/21 11:41:39;;;;;;;4.90;2.60;;;20.70;77.10;;;;;;5087625;28;20437;-50
2023/09/21 11:44:06;;;;;;;4.38;2.60;;;20.80;77.20;;;;;;5091704;28;20089;-51
2023/09/21 11:46:32;;;;;;;5.30;2.63;;;20.80;76.90;;;;;;5092540;28;20122;-53
2023/09/21 11:49:00;;;;;;;5.03;2.40;;;20.90;76.80;;;;;;5084640;28;20048;-51
2023/09/21 11:51:29;;;;;;;5.35;2.20;;;21.00;76.30;;;;;;5072403;28;20037;-52
2023/09/21 11:53:58;;;;;;;;;;;21.20;76.40;;;;;;5080945;28;20024;-51
2023/09/21 11:56:26;;;;;;;3.58;2.38;;;21.30;75.10;;;;;;5090814;28;19916;-52
2023/09/21 11:58:58;;;;;;;5.30;2.05;;;21.40;75.10;;;;;;5091449;28;20124;-54
2023/09/21 12:01:28;;;;;;;5.25;2.67;;;21.50;75.40;;;;;;5075554;28;20071;-52
2023/09/21 12:03:57;;;;;;;5.03;2.53;;;21.60;75.00;;;;;;5091281;28;20037;-54
2023/09/21 12:06:27;;;;;;;6.68;2.72;;;21.60;74.00;;;;;;5092544;28;20097;-52
2023/09/21 12:08:57;;;;;;;3.80;2.15;;;21.80;74.30;;;;;;5081444;28;20124;-52
2023/09/21 12:11:25;;;;;;;5.05;2.38;;;21.90;74.70;;;;;;5072644;28;20043;-48
2023/09/21 12:13:52;;;;;;;4.90;2.53;;;22.00;73.00;;;;;;5091167;28;20055;-52
2023/09/21 12:16:19;;;;;;;3.50;2.25;;;22.00;72.60;;;;;;5083352;28;20438;-48
2023/09/21 12:18:48;;;;;;;4.10;2.28;;;21.90;72.30;;;;;;5088168;28;20086;-51
2023/09/21 12:21:20;;;;;;;4.47;2.40;;;21.70;73.30;;;;;;5092554;28;20017;-54
2023/09/21 12:23:49;;;;;;;6.72;2.70;;;21.60;73.60;;;;;;5075374;28;20032;-54
2023/09/21 12:26:20;;;;;;;5.40;3.20;;;21.60;74.50;;;;;;5070360;28;20434;-48
2023/09/21 12:28:48;;;;;;;5.25;2.80;;;21.60;76.30;;;;;;5088654;28;20467;-51
2023/09/21 12:31:17;;;;;;;5.43;2.90;;;21.50;78.40;;;;;;5092600;28;20024;-49
2023/09/21 12:33:47;;;;;;;5.57;3.00;;;21.40;79.00;;;;;;5073784;28;20032;-52
2023/09/21 12:36:13;;;;;;;4.78;2.60;;;21.40;79.10;;;;;;5071795;28;20040;-53
2023/09/21 12:38:40;;;;;;;4.15;2.63;;;21.30;79.20;;;;;;5072998;28;20078;-50
2023/09/21 12:41:10;;;;;;;4.20;2.75;;;21.20;79.70;;;;;;5075227;28;20020;-47
2023/09/21 12:43:38;;;;;;;;;;;21.20;80.10;;;;;;5075951;28;20040;-50
2023/09/21 12:46:08;;;;;;;5.00;2.87;;;21.10;78.80;;;;;;5075976;28;19987;-48
2023/09/21 12:48:41;;;;;;;5.65;3.13;;;20.90;78.90;;;;;;5069868;28;20104;-51
2023/09/21 12:51:11;;;;;;;4.85;2.80;;;20.80;79.10;;;;;;5096002;28;20028;-51
2023/09/21 12:53:38;;;;;;;4.80;3.00;;;20.80;79.90;;;;;;5079623;28;20032;-52
2023/09/21 12:56:07;;;;;;;6.07;3.63;;;20.70;80.40;;;;;;5075636;28;20082;-52
2023/09/21 12:58:34;;;;;;;4.05;2.83;;;20.70;80.80;;;;;;5085573;28;20111;-54
2023/09/21 13:00:59;;;;;;;6.68;3.70;;;20.70;80.90;;;;;;5095426;28;20028;-54